sensor_id;sensor_type;location;lat;lon;timestamp;P1;durP1;ratioP1;P2;durP2;ratioP2
21554;SDS011;10938;44.794;-0.676;2022-10-16T00:00:21;6.22;;;3.22;;
21554;SDS011;10938;44.794;-0.676;2022-10-16T00:02:46;6.75;;;3.15;;
21554;SDS011;10938;44.794;-0.676;2022-10-16T00:05:12;5.35;;;3.10;;
21554;SDS011;10938;44.794;-0.676;2022-10-16T00:07:37;4.05;;;2.72;;
21554;SDS011;10938;44.794;-0.676;2022-10-16T00:10:02;4.65;;;3.28;;
21554;SDS011;10938;44.794;-0.676;2022-10-16T00:12:28;4.47;;;2.53;;
21554;SDS011;10938;44.794;-0.676;2022-10-16T00:14:53;3.28;;;2.80;;
21554;SDS011;10938;44.794;-0.676;2022-10-16T00:17:19;5.20;;;2.60;;
21554;SDS011;10938;44.794;-0.676;2022-10-16T00:19:44;7.40;;;3.28;;
21554;SDS011;10938;44.794;-0.676;2022-10-16T00:22:09;5.68;;;2.70;;
21554;SDS011;10938;44.794;-0.676;2022-10-16T00:24:36;4.63;;;3.00;;
21554;SDS011;10938;44.794;-0.676;2022-10-16T00:27:01;4.97;;;2.78;;
21554;SDS011;10938;44.794;-0.676;2022-10-16T00:29:27;4.35;;;2.72;;
21554;SDS011;10938;44.794;-0.676;2022-10-16T00:31:52;4.93;;;3.00;;
21554;SDS011;10938;44.794;-0.676;2022-10-16T00:34:17;5.70;;;2.80;;
21554;SDS011;10938;44.794;-0.676;2022-10-16T00:36:43;4.53;;;2.67;;
21554;SDS011;10938;44.794;-0.676;2022-10-16T00:39:08;4.22;;;3.00;;
21554;SDS011;10938;44.794;-0.676;2022-10-16T00:41:34;4.50;;;2.40;;
21554;SDS011;10938;44.794;-0.676;2022-10-16T00:44:00;5.35;;;3.10;;
21554;SDS011;10938;44.794;-0.676;2022-10-16T00:46:38;4.07;;;2.80;;
21554;SDS011;10938;44.794;-0.676;2022-10-16T00:54:11;9.27;;;3.47;;
21554;SDS011;10938;44.794;-0.676;2022-10-16T00:56:39;5.20;;;3.38;;
21554;SDS011;10938;44.794;-0.676;2022-10-16T00:59:07;4.70;;;3.00;;
21554;SDS011;10938;44.794;-0.676;2022-10-16T01:05:01;3.53;;;2.63;;
21554;SDS011;10938;44.794;-0.676;2022-10-16T01:10:42;5.03;;;2.88;;
21554;SDS011;10938;44.794;-0.676;2022-10-16T01:13:21;4.30;;;3.25;;
21554;SDS011;10938;44.794;-0.676;2022-10-16T01:15:55;5.80;;;3.15;;
21554;SDS011;10938;44.794;-0.676;2022-10-16T01:18:45;3.90;;;3.20;;
21554;SDS011;10938;44.794;-0.676;2022-10-16T01:29:32;6.53;;;3.20;;
21554;SDS011;10938;44.794;-0.676;2022-10-16T01:32:04;5.05;;;3.60;;
21554;SDS011;10938;44.794;-0.676;2022-10-16T01:34:52;6.03;;;3.17;;
21554;SDS011;10938;44.794;-0.676;2022-10-16T01:37:46;5.80;;;3.85;;
21554;SDS011;10938;44.794;-0.676;2022-10-16T01:40:14;6.30;;;3.38;;
21554;SDS011;10938;44.794;-0.676;2022-10-16T01:42:44;6.97;;;3.97;;
21554;SDS011;10938;44.794;-0.676;2022-10-16T01:45:13;6.00;;;2.90;;
21554;SDS011;10938;44.794;-0.676;2022-10-16T01:47:43;6.78;;;3.53;;
21554;SDS011;10938;44.794;-0.676;2022-10-16T01:50:09;7.47;;;3.70;;
21554;SDS011;10938;44.794;-0.676;2022-10-16T01:52:35;6.07;;;3.30;;
21554;SDS011;10938;44.794;-0.676;2022-10-16T01:55:04;5.97;;;3.92;;
21554;SDS011;10938;44.794;-0.676;2022-10-16T01:57:35;8.77;;;3.75;;
21554;SDS011;10938;44.794;-0.676;2022-10-16T02:00:06;9.55;;;4.40;;
21554;SDS011;10938;44.794;-0.676;2022-10-16T02:02:35;6.28;;;3.28;;
21554;SDS011;10938;44.794;-0.676;2022-10-16T02:05:16;6.47;;;3.85;;
21554;SDS011;10938;44.794;-0.676;2022-10-16T02:07:43;6.13;;;3.72;;
21554;SDS011;10938;44.794;-0.676;2022-10-16T02:10:09;3.92;;;3.10;;
21554;SDS011;10938;44.794;-0.676;2022-10-16T02:12:36;4.03;;;2.80;;
21554;SDS011;10938;44.794;-0.676;2022-10-16T02:15:05;4.50;;;3.60;;
21554;SDS011;10938;44.794;-0.676;2022-10-16T02:17:32;7.03;;;3.40;;
21554;SDS011;10938;44.794;-0.676;2022-10-16T02:19:57;5.90;;;3.40;;
21554;SDS011;10938;44.794;-0.676;2022-10-16T02:22:43;6.70;;;2.95;;
21554;SDS011;10938;44.794;-0.676;2022-10-16T02:33:07;6.13;;;3.85;;
21554;SDS011;10938;44.794;-0.676;2022-10-16T02:35:35;6.43;;;4.10;;
21554;SDS011;10938;44.794;-0.676;2022-10-16T02:38:02;5.00;;;3.50;;
21554;SDS011;10938;44.794;-0.676;2022-10-16T02:40:29;5.80;;;3.42;;
21554;SDS011;10938;44.794;-0.676;2022-10-16T02:42:55;6.78;;;3.88;;
21554;SDS011;10938;44.794;-0.676;2022-10-16T02:45:21;7.15;;;3.63;;
21554;SDS011;10938;44.794;-0.676;2022-10-16T02:47:50;6.10;;;3.70;;
21554;SDS011;10938;44.794;-0.676;2022-10-16T02:50:16;4.72;;;2.83;;
21554;SDS011;10938;44.794;-0.676;2022-10-16T02:52:41;3.33;;;2.67;;
21554;SDS011;10938;44.794;-0.676;2022-10-16T02:55:07;7.45;;;3.55;;
21554;SDS011;10938;44.794;-0.676;2022-10-16T02:57:32;5.40;;;3.00;;
21554;SDS011;10938;44.794;-0.676;2022-10-16T02:59:58;5.72;;;3.03;;
21554;SDS011;10938;44.794;-0.676;2022-10-16T03:02:23;5.80;;;2.40;;
21554;SDS011;10938;44.794;-0.676;2022-10-16T03:04:49;3.58;;;2.88;;
21554;SDS011;10938;44.794;-0.676;2022-10-16T03:07:14;5.38;;;3.42;;
21554;SDS011;10938;44.794;-0.676;2022-10-16T03:09:40;7.97;;;3.03;;
21554;SDS011;10938;44.794;-0.676;2022-10-16T03:12:05;4.82;;;2.80;;
21554;SDS011;10938;44.794;-0.676;2022-10-16T03:14:31;7.07;;;2.92;;
21554;SDS011;10938;44.794;-0.676;2022-10-16T03:16:57;3.85;;;2.80;;
21554;SDS011;10938;44.794;-0.676;2022-10-16T03:19:22;4.18;;;2.95;;
21554;SDS011;10938;44.794;-0.676;2022-10-16T03:21:48;3.50;;;2.53;;
21554;SDS011;10938;44.794;-0.676;2022-10-16T03:24:13;7.32;;;3.17;;
21554;SDS011;10938;44.794;-0.676;2022-10-16T03:26:39;3.95;;;2.65;;
21554;SDS011;10938;44.794;-0.676;2022-10-16T03:29:04;5.82;;;3.15;;
21554;SDS011;10938;44.794;-0.676;2022-10-16T03:31:30;4.43;;;2.60;;
21554;SDS011;10938;44.794;-0.676;2022-10-16T03:33:56;6.30;;;2.60;;
21554;SDS011;10938;44.794;-0.676;2022-10-16T03:36:22;4.38;;;2.78;;
21554;SDS011;10938;44.794;-0.676;2022-10-16T03:38:47;5.57;;;2.83;;
21554;SDS011;10938;44.794;-0.676;2022-10-16T03:41:12;3.53;;;2.65;;
21554;SDS011;10938;44.794;-0.676;2022-10-16T03:43:38;5.47;;;2.92;;
21554;SDS011;10938;44.794;-0.676;2022-10-16T03:46:03;6.22;;;2.95;;
21554;SDS011;10938;44.794;-0.676;2022-10-16T03:48:29;3.97;;;2.78;;
21554;SDS011;10938;44.794;-0.676;2022-10-16T03:50:55;6.22;;;3.33;;
21554;SDS011;10938;44.794;-0.676;2022-10-16T03:53:20;3.83;;;3.00;;
21554;SDS011;10938;44.794;-0.676;2022-10-16T03:55:48;4.70;;;2.35;;
21554;SDS011;10938;44.794;-0.676;2022-10-16T03:58:13;4.72;;;3.00;;
21554;SDS011;10938;44.794;-0.676;2022-10-16T04:00:42;3.88;;;3.30;;
21554;SDS011;10938;44.794;-0.676;2022-10-16T04:03:09;7.22;;;3.47;;
21554;SDS011;10938;44.794;-0.676;2022-10-16T04:05:35;6.28;;;2.90;;
21554;SDS011;10938;44.794;-0.676;2022-10-16T04:08:01;5.00;;;3.00;;
21554;SDS011;10938;44.794;-0.676;2022-10-16T04:10:26;7.55;;;3.80;;
21554;SDS011;10938;44.794;-0.676;2022-10-16T04:12:52;5.57;;;3.53;;
21554;SDS011;10938;44.794;-0.676;2022-10-16T04:15:20;4.15;;;3.25;;
21554;SDS011;10938;44.794;-0.676;2022-10-16T04:17:47;3.08;;;2.78;;
21554;SDS011;10938;44.794;-0.676;2022-10-16T04:20:12;3.92;;;2.78;;
21554;SDS011;10938;44.794;-0.676;2022-10-16T04:22:38;4.88;;;2.90;;
21554;SDS011;10938;44.794;-0.676;2022-10-16T04:25:04;4.65;;;2.88;;
21554;SDS011;10938;44.794;-0.676;2022-10-16T04:27:29;5.00;;;2.90;;
21554;SDS011;10938;44.794;-0.676;2022-10-16T04:29:56;4.50;;;2.75;;
21554;SDS011;10938;44.794;-0.676;2022-10-16T04:32:22;3.78;;;2.80;;
21554;SDS011;10938;44.794;-0.676;2022-10-16T04:34:47;4.43;;;3.17;;
21554;SDS011;10938;44.794;-0.676;2022-10-16T04:37:13;5.20;;;2.40;;
21554;SDS011;10938;44.794;-0.676;2022-10-16T04:39:38;4.45;;;2.80;;
21554;SDS011;10938;44.794;-0.676;2022-10-16T04:42:04;4.22;;;2.80;;
21554;SDS011;10938;44.794;-0.676;2022-10-16T04:44:29;3.92;;;2.90;;
21554;SDS011;10938;44.794;-0.676;2022-10-16T04:46:54;4.88;;;3.45;;
21554;SDS011;10938;44.794;-0.676;2022-10-16T04:49:20;5.07;;;2.80;;
21554;SDS011;10938;44.794;-0.676;2022-10-16T04:51:45;2.90;;;2.65;;
21554;SDS011;10938;44.794;-0.676;2022-10-16T04:54:10;3.05;;;2.42;;
21554;SDS011;10938;44.794;-0.676;2022-10-16T04:56:36;4.90;;;3.30;;
21554;SDS011;10938;44.794;-0.676;2022-10-16T04:59:08;7.97;;;4.03;;
21554;SDS011;10938;44.794;-0.676;2022-10-16T05:01:34;3.33;;;2.63;;
21554;SDS011;10938;44.794;-0.676;2022-10-16T05:04:00;5.55;;;3.85;;
21554;SDS011;10938;44.794;-0.676;2022-10-16T05:06:26;5.45;;;3.45;;
21554;SDS011;10938;44.794;-0.676;2022-10-16T05:08:51;5.00;;;3.08;;
21554;SDS011;10938;44.794;-0.676;2022-10-16T05:11:17;4.32;;;2.50;;
21554;SDS011;10938;44.794;-0.676;2022-10-16T05:13:43;6.05;;;3.83;;
21554;SDS011;10938;44.794;-0.676;2022-10-16T05:16:08;4.90;;;3.70;;
21554;SDS011;10938;44.794;-0.676;2022-10-16T05:18:34;5.57;;;3.70;;
21554;SDS011;10938;44.794;-0.676;2022-10-16T05:20:59;5.43;;;3.72;;
21554;SDS011;10938;44.794;-0.676;2022-10-16T05:23:24;7.25;;;3.42;;
21554;SDS011;10938;44.794;-0.676;2022-10-16T05:25:54;4.72;;;3.13;;
21554;SDS011;10938;44.794;-0.676;2022-10-16T05:28:23;4.38;;;3.97;;
21554;SDS011;10938;44.794;-0.676;2022-10-16T05:30:52;6.00;;;3.60;;
21554;SDS011;10938;44.794;-0.676;2022-10-16T05:33:19;4.70;;;3.22;;
21554;SDS011;10938;44.794;-0.676;2022-10-16T05:35:48;7.50;;;4.75;;
21554;SDS011;10938;44.794;-0.676;2022-10-16T05:38:15;3.92;;;3.15;;
21554;SDS011;10938;44.794;-0.676;2022-10-16T05:40:50;3.90;;;3.05;;
21554;SDS011;10938;44.794;-0.676;2022-10-16T05:43:17;3.13;;;2.58;;
21554;SDS011;10938;44.794;-0.676;2022-10-16T05:45:42;5.30;;;3.30;;
21554;SDS011;10938;44.794;-0.676;2022-10-16T05:48:07;6.43;;;3.13;;
21554;SDS011;10938;44.794;-0.676;2022-10-16T05:50:33;3.55;;;3.03;;
21554;SDS011;10938;44.794;-0.676;2022-10-16T05:52:58;7.63;;;3.63;;
21554;SDS011;10938;44.794;-0.676;2022-10-16T05:55:24;3.47;;;2.80;;
21554;SDS011;10938;44.794;-0.676;2022-10-16T05:57:49;3.58;;;3.15;;
21554;SDS011;10938;44.794;-0.676;2022-10-16T06:00:14;3.00;;;2.65;;
21554;SDS011;10938;44.794;-0.676;2022-10-16T06:02:40;4.15;;;2.65;;
21554;SDS011;10938;44.794;-0.676;2022-10-16T06:05:05;3.03;;;2.70;;
21554;SDS011;10938;44.794;-0.676;2022-10-16T06:07:33;6.03;;;3.25;;
21554;SDS011;10938;44.794;-0.676;2022-10-16T06:10:00;3.38;;;2.85;;
21554;SDS011;10938;44.794;-0.676;2022-10-16T06:12:26;6.20;;;3.67;;
21554;SDS011;10938;44.794;-0.676;2022-10-16T06:14:51;5.07;;;3.00;;
21554;SDS011;10938;44.794;-0.676;2022-10-16T06:17:17;3.33;;;3.03;;
21554;SDS011;10938;44.794;-0.676;2022-10-16T06:19:42;4.82;;;3.35;;
21554;SDS011;10938;44.794;-0.676;2022-10-16T06:22:08;3.58;;;2.75;;
21554;SDS011;10938;44.794;-0.676;2022-10-16T06:24:33;7.45;;;3.55;;
21554;SDS011;10938;44.794;-0.676;2022-10-16T06:26:58;6.80;;;4.05;;
21554;SDS011;10938;44.794;-0.676;2022-10-16T06:29:24;4.25;;;3.25;;
21554;SDS011;10938;44.794;-0.676;2022-10-16T06:31:49;8.85;;;3.88;;
21554;SDS011;10938;44.794;-0.676;2022-10-16T06:34:15;3.85;;;3.03;;
21554;SDS011;10938;44.794;-0.676;2022-10-16T06:36:40;6.15;;;3.20;;
21554;SDS011;10938;44.794;-0.676;2022-10-16T06:39:08;10.63;;;4.25;;
21554;SDS011;10938;44.794;-0.676;2022-10-16T06:41:34;5.57;;;3.40;;
21554;SDS011;10938;44.794;-0.676;2022-10-16T06:44:00;6.38;;;4.25;;
21554;SDS011;10938;44.794;-0.676;2022-10-16T06:46:26;5.03;;;4.53;;
21554;SDS011;10938;44.794;-0.676;2022-10-16T06:48:53;7.20;;;4.60;;
21554;SDS011;10938;44.794;-0.676;2022-10-16T06:51:20;4.70;;;3.65;;
21554;SDS011;10938;44.794;-0.676;2022-10-16T06:53:51;4.78;;;3.65;;
21554;SDS011;10938;44.794;-0.676;2022-10-16T06:56:22;5.40;;;4.60;;
21554;SDS011;10938;44.794;-0.676;2022-10-16T06:58:49;4.80;;;4.20;;
21554;SDS011;10938;44.794;-0.676;2022-10-16T07:01:15;8.35;;;4.35;;
21554;SDS011;10938;44.794;-0.676;2022-10-16T07:03:43;6.53;;;4.30;;
21554;SDS011;10938;44.794;-0.676;2022-10-16T07:06:11;5.60;;;5.05;;
21554;SDS011;10938;44.794;-0.676;2022-10-16T07:08:38;7.75;;;5.00;;
21554;SDS011;10938;44.794;-0.676;2022-10-16T07:11:06;11.43;;;5.55;;
21554;SDS011;10938;44.794;-0.676;2022-10-16T07:13:34;10.23;;;6.38;;
21554;SDS011;10938;44.794;-0.676;2022-10-16T07:16:04;9.02;;;6.20;;
21554;SDS011;10938;44.794;-0.676;2022-10-16T07:18:40;9.30;;;5.30;;
21554;SDS011;10938;44.794;-0.676;2022-10-16T07:21:08;7.43;;;5.25;;
21554;SDS011;10938;44.794;-0.676;2022-10-16T07:23:36;6.63;;;4.82;;
21554;SDS011;10938;44.794;-0.676;2022-10-16T07:26:02;7.80;;;4.40;;
21554;SDS011;10938;44.794;-0.676;2022-10-16T07:28:28;6.10;;;4.18;;
21554;SDS011;10938;44.794;-0.676;2022-10-16T07:30:54;4.60;;;3.95;;
21554;SDS011;10938;44.794;-0.676;2022-10-16T07:33:19;8.45;;;4.32;;
21554;SDS011;10938;44.794;-0.676;2022-10-16T07:35:49;5.78;;;4.47;;
21554;SDS011;10938;44.794;-0.676;2022-10-16T07:38:16;4.38;;;3.90;;
21554;SDS011;10938;44.794;-0.676;2022-10-16T07:40:41;7.93;;;3.92;;
21554;SDS011;10938;44.794;-0.676;2022-10-16T07:43:07;7.05;;;3.88;;
21554;SDS011;10938;44.794;-0.676;2022-10-16T07:45:32;5.93;;;4.20;;
21554;SDS011;10938;44.794;-0.676;2022-10-16T07:47:58;4.72;;;3.67;;
21554;SDS011;10938;44.794;-0.676;2022-10-16T07:50:23;6.07;;;3.90;;
21554;SDS011;10938;44.794;-0.676;2022-10-16T07:52:48;6.65;;;4.18;;
21554;SDS011;10938;44.794;-0.676;2022-10-16T07:55:14;7.82;;;4.10;;
21554;SDS011;10938;44.794;-0.676;2022-10-16T07:57:39;6.63;;;4.15;;
21554;SDS011;10938;44.794;-0.676;2022-10-16T08:00:05;6.72;;;4.25;;
21554;SDS011;10938;44.794;-0.676;2022-10-16T08:02:31;6.25;;;4.38;;
21554;SDS011;10938;44.794;-0.676;2022-10-16T08:04:57;7.80;;;4.25;;
21554;SDS011;10938;44.794;-0.676;2022-10-16T08:07:22;6.82;;;4.05;;
21554;SDS011;10938;44.794;-0.676;2022-10-16T08:09:51;4.32;;;3.65;;
21554;SDS011;10938;44.794;-0.676;2022-10-16T08:12:17;7.00;;;4.05;;
21554;SDS011;10938;44.794;-0.676;2022-10-16T08:14:42;5.88;;;3.75;;
21554;SDS011;10938;44.794;-0.676;2022-10-16T08:17:08;11.80;;;4.07;;
21554;SDS011;10938;44.794;-0.676;2022-10-16T08:19:33;5.85;;;3.42;;
21554;SDS011;10938;44.794;-0.676;2022-10-16T08:21:59;8.60;;;4.60;;
21554;SDS011;10938;44.794;-0.676;2022-10-16T08:24:25;7.43;;;4.18;;
21554;SDS011;10938;44.794;-0.676;2022-10-16T08:26:53;6.18;;;4.22;;
21554;SDS011;10938;44.794;-0.676;2022-10-16T08:29:19;6.93;;;4.25;;
21554;SDS011;10938;44.794;-0.676;2022-10-16T08:31:44;5.68;;;4.35;;
21554;SDS011;10938;44.794;-0.676;2022-10-16T08:34:10;6.25;;;3.95;;
21554;SDS011;10938;44.794;-0.676;2022-10-16T08:36:35;6.10;;;4.10;;
21554;SDS011;10938;44.794;-0.676;2022-10-16T08:39:00;6.93;;;4.10;;
21554;SDS011;10938;44.794;-0.676;2022-10-16T08:47:02;6.63;;;3.95;;
21554;SDS011;10938;44.794;-0.676;2022-10-16T08:49:38;6.07;;;3.58;;
21554;SDS011;10938;44.794;-0.676;2022-10-16T08:52:11;6.00;;;3.40;;
21554;SDS011;10938;44.794;-0.676;2022-10-16T08:54:41;5.03;;;3.60;;
21554;SDS011;10938;44.794;-0.676;2022-10-16T08:57:21;5.35;;;3.53;;
21554;SDS011;10938;44.794;-0.676;2022-10-16T08:59:49;5.93;;;3.70;;
21554;SDS011;10938;44.794;-0.676;2022-10-16T09:23:34;5.03;;;3.40;;
21554;SDS011;10938;44.794;-0.676;2022-10-16T09:26:01;5.07;;;2.83;;
21554;SDS011;10938;44.794;-0.676;2022-10-16T09:28:28;3.33;;;2.83;;
21554;SDS011;10938;44.794;-0.676;2022-10-16T09:30:54;5.05;;;3.20;;
21554;SDS011;10938;44.794;-0.676;2022-10-16T09:33:20;4.47;;;2.80;;
21554;SDS011;10938;44.794;-0.676;2022-10-16T09:35:50;5.90;;;3.30;;
21554;SDS011;10938;44.794;-0.676;2022-10-16T09:38:28;5.28;;;2.90;;
21554;SDS011;10938;44.794;-0.676;2022-10-16T09:40:58;4.22;;;3.13;;
21554;SDS011;10938;44.794;-0.676;2022-10-16T09:46:19;4.53;;;3.05;;
21554;SDS011;10938;44.794;-0.676;2022-10-16T09:48:53;4.70;;;3.03;;
21554;SDS011;10938;44.794;-0.676;2022-10-16T09:51:23;6.80;;;3.10;;
21554;SDS011;10938;44.794;-0.676;2022-10-16T09:54:13;5.78;;;3.03;;
21554;SDS011;10938;44.794;-0.676;2022-10-16T09:56:41;5.45;;;2.97;;
21554;SDS011;10938;44.794;-0.676;2022-10-16T09:59:11;6.50;;;3.00;;
21554;SDS011;10938;44.794;-0.676;2022-10-16T10:01:43;4.15;;;3.30;;
21554;SDS011;10938;44.794;-0.676;2022-10-16T10:04:13;6.32;;;3.42;;
21554;SDS011;10938;44.794;-0.676;2022-10-16T10:06:50;3.25;;;3.03;;
21554;SDS011;10938;44.794;-0.676;2022-10-16T10:14:16;4.63;;;3.20;;
21554;SDS011;10938;44.794;-0.676;2022-10-16T10:16:47;4.75;;;3.08;;
21554;SDS011;10938;44.794;-0.676;2022-10-16T10:19:20;3.80;;;3.00;;
21554;SDS011;10938;44.794;-0.676;2022-10-16T10:21:48;5.30;;;3.38;;
21554;SDS011;10938;44.794;-0.676;2022-10-16T10:24:16;4.43;;;3.08;;
21554;SDS011;10938;44.794;-0.676;2022-10-16T10:26:51;4.25;;;3.10;;
21554;SDS011;10938;44.794;-0.676;2022-10-16T10:29:45;5.88;;;3.13;;
21554;SDS011;10938;44.794;-0.676;2022-10-16T10:32:26;4.85;;;3.10;;
21554;SDS011;10938;44.794;-0.676;2022-10-16T10:43:10;4.22;;;3.25;;
21554;SDS011;10938;44.794;-0.676;2022-10-16T10:46:00;5.65;;;3.25;;
21554;SDS011;10938;44.794;-0.676;2022-10-16T10:51:31;4.72;;;3.22;;
21554;SDS011;10938;44.794;-0.676;2022-10-16T10:54:10;7.47;;;3.17;;
21554;SDS011;10938;44.794;-0.676;2022-10-16T11:02:37;5.97;;;3.28;;
21554;SDS011;10938;44.794;-0.676;2022-10-16T11:05:10;4.05;;;3.00;;
21554;SDS011;10938;44.794;-0.676;2022-10-16T11:07:50;3.75;;;3.15;;
21554;SDS011;10938;44.794;-0.676;2022-10-16T11:10:23;4.93;;;2.95;;
21554;SDS011;10938;44.794;-0.676;2022-10-16T11:12:57;4.22;;;2.97;;
21554;SDS011;10938;44.794;-0.676;2022-10-16T11:15:41;6.95;;;3.00;;
21554;SDS011;10938;44.794;-0.676;2022-10-16T11:18:30;3.33;;;2.90;;
21554;SDS011;10938;44.794;-0.676;2022-10-16T11:21:25;3.83;;;2.85;;
21554;SDS011;10938;44.794;-0.676;2022-10-16T11:23:59;4.18;;;2.97;;
21554;SDS011;10938;44.794;-0.676;2022-10-16T11:26:50;5.82;;;3.10;;
21554;SDS011;10938;44.794;-0.676;2022-10-16T11:29:27;4.03;;;2.92;;
21554;SDS011;10938;44.794;-0.676;2022-10-16T11:32:14;4.80;;;3.28;;
21554;SDS011;10938;44.794;-0.676;2022-10-16T11:34:55;5.53;;;3.10;;
21554;SDS011;10938;44.794;-0.676;2022-10-16T11:37:27;4.72;;;3.03;;
21554;SDS011;10938;44.794;-0.676;2022-10-16T11:40:03;6.03;;;3.45;;
21554;SDS011;10938;44.794;-0.676;2022-10-16T11:42:44;4.38;;;2.92;;
21554;SDS011;10938;44.794;-0.676;2022-10-16T11:45:34;3.55;;;2.65;;
21554;SDS011;10938;44.794;-0.676;2022-10-16T11:54:01;7.13;;;2.75;;
21554;SDS011;10938;44.794;-0.676;2022-10-16T11:56:52;3.88;;;2.92;;
21554;SDS011;10938;44.794;-0.676;2022-10-16T12:07:51;4.15;;;2.75;;
21554;SDS011;10938;44.794;-0.676;2022-10-16T12:10:26;4.28;;;2.88;;
21554;SDS011;10938;44.794;-0.676;2022-10-16T12:13:00;3.80;;;2.63;;
21554;SDS011;10938;44.794;-0.676;2022-10-16T12:15:27;5.63;;;2.40;;
21554;SDS011;10938;44.794;-0.676;2022-10-16T12:18:01;6.53;;;2.78;;
21554;SDS011;10938;44.794;-0.676;2022-10-16T12:20:31;3.67;;;2.40;;
21554;SDS011;10938;44.794;-0.676;2022-10-16T12:23:02;5.65;;;2.10;;
21554;SDS011;10938;44.794;-0.676;2022-10-16T12:25:33;4.65;;;2.30;;
21554;SDS011;10938;44.794;-0.676;2022-10-16T12:31:01;3.15;;;2.40;;
21554;SDS011;10938;44.794;-0.676;2022-10-16T12:33:41;3.72;;;2.42;;
21554;SDS011;10938;44.794;-0.676;2022-10-16T12:36:35;9.80;;;2.05;;
21554;SDS011;10938;44.794;-0.676;2022-10-16T12:39:22;3.50;;;2.30;;
21554;SDS011;10938;44.794;-0.676;2022-10-16T12:42:04;2.50;;;1.98;;
21554;SDS011;10938;44.794;-0.676;2022-10-16T12:45:12;8.57;;;2.33;;
21554;SDS011;10938;44.794;-0.676;2022-10-16T12:47:54;6.53;;;2.13;;
21554;SDS011;10938;44.794;-0.676;2022-10-16T12:50:29;5.47;;;2.40;;
21554;SDS011;10938;44.794;-0.676;2022-10-16T12:52:58;2.83;;;2.28;;
21554;SDS011;10938;44.794;-0.676;2022-10-16T12:55:32;5.97;;;2.03;;
21554;SDS011;10938;44.794;-0.676;2022-10-16T12:58:10;5.78;;;2.15;;
21554;SDS011;10938;44.794;-0.676;2022-10-16T13:07:15;5.28;;;2.08;;
21554;SDS011;10938;44.794;-0.676;2022-10-16T13:15:54;5.90;;;1.95;;
21554;SDS011;10938;44.794;-0.676;2022-10-16T13:21:58;4.38;;;2.33;;
21554;SDS011;10938;44.794;-0.676;2022-10-16T13:24:28;2.85;;;2.20;;
21554;SDS011;10938;44.794;-0.676;2022-10-16T14:26:22;4.40;;;1.88;;
21554;SDS011;10938;44.794;-0.676;2022-10-16T14:29:12;2.97;;;2.03;;
21554;SDS011;10938;44.794;-0.676;2022-10-16T14:31:42;2.35;;;2.00;;
21554;SDS011;10938;44.794;-0.676;2022-10-16T14:36:58;4.35;;;2.22;;
21554;SDS011;10938;44.794;-0.676;2022-10-16T14:39:27;2.42;;;1.83;;
21554;SDS011;10938;44.794;-0.676;2022-10-16T14:41:54;3.78;;;2.00;;
21554;SDS011;10938;44.794;-0.676;2022-10-16T14:44:22;3.00;;;1.90;;
21554;SDS011;10938;44.794;-0.676;2022-10-16T14:46:54;3.35;;;1.90;;
21554;SDS011;10938;44.794;-0.676;2022-10-16T14:49:21;3.75;;;2.22;;
21554;SDS011;10938;44.794;-0.676;2022-10-16T14:51:48;3.28;;;1.80;;
21554;SDS011;10938;44.794;-0.676;2022-10-16T14:54:17;3.90;;;2.30;;
21554;SDS011;10938;44.794;-0.676;2022-10-16T14:56:47;5.47;;;2.20;;
21554;SDS011;10938;44.794;-0.676;2022-10-16T14:59:17;3.25;;;2.25;;
21554;SDS011;10938;44.794;-0.676;2022-10-16T15:01:44;5.22;;;2.40;;
21554;SDS011;10938;44.794;-0.676;2022-10-16T15:04:11;2.65;;;2.45;;
21554;SDS011;10938;44.794;-0.676;2022-10-16T15:06:38;4.45;;;2.60;;
21554;SDS011;10938;44.794;-0.676;2022-10-16T15:09:08;9.13;;;2.83;;
21554;SDS011;10938;44.794;-0.676;2022-10-16T15:11:33;3.88;;;2.72;;
21554;SDS011;10938;44.794;-0.676;2022-10-16T15:13:59;3.40;;;2.80;;
21554;SDS011;10938;44.794;-0.676;2022-10-16T15:16:24;6.20;;;3.00;;
21554;SDS011;10938;44.794;-0.676;2022-10-16T15:18:50;4.78;;;3.13;;
21554;SDS011;10938;44.794;-0.676;2022-10-16T15:21:31;5.43;;;3.35;;
21554;SDS011;10938;44.794;-0.676;2022-10-16T15:23:58;6.72;;;3.70;;
21554;SDS011;10938;44.794;-0.676;2022-10-16T15:26:25;8.10;;;3.40;;
21554;SDS011;10938;44.794;-0.676;2022-10-16T15:28:51;8.85;;;3.58;;
21554;SDS011;10938;44.794;-0.676;2022-10-16T15:31:17;5.50;;;3.47;;
21554;SDS011;10938;44.794;-0.676;2022-10-16T15:33:43;4.40;;;3.05;;
21554;SDS011;10938;44.794;-0.676;2022-10-16T15:36:08;5.15;;;3.40;;
21554;SDS011;10938;44.794;-0.676;2022-10-16T15:38:34;3.83;;;3.08;;
21554;SDS011;10938;44.794;-0.676;2022-10-16T15:41:00;3.38;;;2.50;;
21554;SDS011;10938;44.794;-0.676;2022-10-16T15:43:25;4.35;;;2.90;;
21554;SDS011;10938;44.794;-0.676;2022-10-16T15:46:04;4.15;;;3.25;;
21554;SDS011;10938;44.794;-0.676;2022-10-16T15:48:32;5.43;;;2.55;;
21554;SDS011;10938;44.794;-0.676;2022-10-16T15:50:58;3.13;;;2.42;;
21554;SDS011;10938;44.794;-0.676;2022-10-16T15:53:25;2.45;;;2.08;;
21554;SDS011;10938;44.794;-0.676;2022-10-16T15:55:50;2.45;;;2.20;;
21554;SDS011;10938;44.794;-0.676;2022-10-16T15:58:16;5.55;;;2.50;;
21554;SDS011;10938;44.794;-0.676;2022-10-16T16:00:42;5.07;;;2.22;;
21554;SDS011;10938;44.794;-0.676;2022-10-16T16:03:07;3.58;;;2.38;;
21554;SDS011;10938;44.794;-0.676;2022-10-16T16:05:37;2.95;;;2.33;;
21554;SDS011;10938;44.794;-0.676;2022-10-16T16:08:05;3.67;;;2.38;;
21554;SDS011;10938;44.794;-0.676;2022-10-16T16:10:30;2.38;;;2.17;;
21554;SDS011;10938;44.794;-0.676;2022-10-16T16:13:07;3.83;;;2.25;;
21554;SDS011;10938;44.794;-0.676;2022-10-16T16:15:32;3.92;;;2.75;;
21554;SDS011;10938;44.794;-0.676;2022-10-16T16:17:58;4.28;;;2.40;;
21554;SDS011;10938;44.794;-0.676;2022-10-16T16:20:23;2.30;;;2.10;;
21554;SDS011;10938;44.794;-0.676;2022-10-16T16:22:50;3.78;;;2.17;;
21554;SDS011;10938;44.794;-0.676;2022-10-16T16:25:15;4.18;;;2.35;;
21554;SDS011;10938;44.794;-0.676;2022-10-16T16:27:41;2.30;;;2.10;;
21554;SDS011;10938;44.794;-0.676;2022-10-16T16:30:08;1.90;;;1.75;;
21554;SDS011;10938;44.794;-0.676;2022-10-16T16:32:35;3.47;;;2.03;;
21554;SDS011;10938;44.794;-0.676;2022-10-16T16:35:01;4.95;;;2.20;;
21554;SDS011;10938;44.794;-0.676;2022-10-16T16:37:27;3.33;;;2.45;;
21554;SDS011;10938;44.794;-0.676;2022-10-16T16:39:55;3.10;;;2.30;;
21554;SDS011;10938;44.794;-0.676;2022-10-16T16:42:24;2.90;;;2.38;;
21554;SDS011;10938;44.794;-0.676;2022-10-16T16:44:51;2.58;;;2.30;;
21554;SDS011;10938;44.794;-0.676;2022-10-16T16:47:19;3.08;;;2.42;;
21554;SDS011;10938;44.794;-0.676;2022-10-16T16:49:46;6.78;;;2.10;;
21554;SDS011;10938;44.794;-0.676;2022-10-16T16:52:17;4.47;;;2.50;;
21554;SDS011;10938;44.794;-0.676;2022-10-16T16:54:42;6.18;;;2.30;;
21554;SDS011;10938;44.794;-0.676;2022-10-16T16:57:13;4.22;;;2.10;;
21554;SDS011;10938;44.794;-0.676;2022-10-16T16:59:44;5.43;;;2.67;;
21554;SDS011;10938;44.794;-0.676;2022-10-16T17:02:19;3.70;;;2.50;;
21554;SDS011;10938;44.794;-0.676;2022-10-16T17:04:49;3.50;;;2.30;;
21554;SDS011;10938;44.794;-0.676;2022-10-16T17:07:22;3.47;;;2.50;;
21554;SDS011;10938;44.794;-0.676;2022-10-16T17:09:50;2.58;;;2.33;;
21554;SDS011;10938;44.794;-0.676;2022-10-16T17:12:16;2.95;;;2.30;;
21554;SDS011;10938;44.794;-0.676;2022-10-16T17:14:44;4.53;;;2.80;;
21554;SDS011;10938;44.794;-0.676;2022-10-16T17:17:23;5.38;;;2.90;;
21554;SDS011;10938;44.794;-0.676;2022-10-16T17:19:51;7.57;;;3.13;;
21554;SDS011;10938;44.794;-0.676;2022-10-16T17:22:22;5.57;;;3.00;;
21554;SDS011;10938;44.794;-0.676;2022-10-16T17:24:49;3.63;;;2.95;;
21554;SDS011;10938;44.794;-0.676;2022-10-16T17:27:16;5.88;;;3.58;;
21554;SDS011;10938;44.794;-0.676;2022-10-16T17:29:50;3.88;;;2.78;;
21554;SDS011;10938;44.794;-0.676;2022-10-16T17:32:16;4.72;;;2.70;;
21554;SDS011;10938;44.794;-0.676;2022-10-16T17:34:41;5.40;;;3.08;;
21554;SDS011;10938;44.794;-0.676;2022-10-16T17:37:09;5.80;;;3.28;;
21554;SDS011;10938;44.794;-0.676;2022-10-16T17:39:36;6.15;;;4.40;;